PARKFIELD (PKF)

Elevation: 1535' · SALINAS R basin · Operator: CAL FIRE

Provisional data, subject to change.
Query executed Saturday at 6:40:53   clock

Select a sensor type for a plot of data.

Earlier

Date PPT INC    RAIN    TEMP MN    TEMP MX    TEMP AV   
 INCHES   INCHES   DEG F   DEG F   DEG F  
10/14/2012 0.00 0.01 43 83 61
10/15/2012 0.00 0.01 46 84 63
10/16/2012 0.00 0.01 50 88 67
10/17/2012 0.00 0.01 52 89 67
10/18/2012 0.00 0.01 52 92 70
10/19/2012 0.00 0.01 54 86 66
10/20/2012 0.00 0.01 47 83 62
10/21/2012 0.00 0.01 42 74 56
10/22/2012 0.16 0.17 40 56 50
10/23/2012 0.00 0.17 38 61 49
10/24/2012 0.00 0.17 33 67 49
10/25/2012 0.00 0.17 44 71 57
10/26/2012 0.00 0.17 43 76 58
10/27/2012 0.00 0.17 41 79 58
10/28/2012 0.00 0.17 43 86 61
10/29/2012 0.00 0.17 44 86 62
10/30/2012 0.00 0.17 46 86 62
10/31/2012 0.00 0.17 40 75 57
11/01/2012 0.00 0.17 41 68 54
11/02/2012 0.00 0.17 43 71 55
11/03/2012 0.00 0.17 41 76 56
11/04/2012 0.00 0.17 40 81 58
11/05/2012 0.00 0.17 44 88 61
11/06/2012 0.00 0.17 45 91 64
11/07/2012 0.00 0.17 42 85 60
11/08/2012 0.00 0.17 38 60 50
11/09/2012 0.00 0.17 31 56 41
11/10/2012 0.00 0.17 30 57 41
11/11/2012 0.00 0.17 27 58 41
11/12/2012 0.00 0.17 26 65 44
11/13/2012 0.00 0.17 30 70 46
11/14/2012 0.00 0.17 32 72 49

Later | Latest

Warning! This data is preliminary and subject to revision.

Show PKF Map | Plot PKF Data | 1 Month PKF Data | Real-Time PKF Data | PKF Info